map of FRW home
FRW - Airport
Location
City:  Francistown, North-East, Botswana
Name:Francistown International Airport
ICAO:FBFT
IATA:FRW

Details
Type:Airport (Aerodrome, Airfield)
Use:Public/Civil, International (customs port of entry)
Latitude:2109'35"S (-21.159596)
Longitude:2728'28"E (27.474525)
Datum:WGS 1984
Elevation:3283 ft (1001 m)
Variation:11.46W (WMM2015 magnetic declination)
-0.03 annual change
Runways:2
Longest:7218 × 98 ft (2200 × 30 m), paved

Time
Time Zone:UTC+2
Local Time:

Weather
METAR:FBFT 201900Z 17008KT 9999 FEW030 29/12 Q1015

Related Locations
Nearby:
Farthest:ITO: 12251 mi / 19717 km
Hilo [Hilo Intl], Hawaii, HI, US

Find:

   beyond  
but within

Other Information
Maps:
NOTAMs:
Links:
Sources:

  
  • flag of Botswana
  

Sectional Chart

Flight Planning
at skyvector.com

Satellite Image

Google Maps Satellite view

 

Copyright © 2004-2018 Karl L. Swartz. All rights reserved.
The Great Circle Mapper name and logo are trademarks of the Great Circle Mapper.
All other trademarks mentioned herein belong to their respective owners.
Please see credits for attibutions and further copyright information.

  Follow gcmap on Facebook Follow gcmap on Twitter Follow gcmap on Google+ GCmap on LinkedIn

hCard Microformat

Geo Microformat